sensor_id;sensor_type;location;lat;lon;timestamp;temperature;humidity
56869;DHT22;42754;0.000;0.000;2022-12-07T00:00:50;4.50;99.90
56869;DHT22;42754;0.000;0.000;2022-12-07T00:03:15;4.50;99.90
56869;DHT22;42754;0.000;0.000;2022-12-07T00:05:41;4.50;99.90
56869;DHT22;42754;0.000;0.000;2022-12-07T00:08:06;4.50;99.90
56869;DHT22;42754;0.000;0.000;2022-12-07T00:10:35;4.50;99.90
56869;DHT22;42754;0.000;0.000;2022-12-07T00:13:01;4.40;99.90
56869;DHT22;42754;0.000;0.000;2022-12-07T00:15:26;4.40;99.90
56869;DHT22;42754;0.000;0.000;2022-12-07T00:17:52;4.30;99.90
56869;DHT22;42754;0.000;0.000;2022-12-07T00:20:17;4.20;99.90
56869;DHT22;42754;0.000;0.000;2022-12-07T00:22:43;4.30;99.90
56869;DHT22;42754;0.000;0.000;2022-12-07T00:25:08;4.20;99.90
56869;DHT22;42754;0.000;0.000;2022-12-07T00:27:34;4.20;99.90
56869;DHT22;42754;0.000;0.000;2022-12-07T00:29:59;4.20;99.90
56869;DHT22;42754;0.000;0.000;2022-12-07T00:32:25;4.10;99.90
56869;DHT22;42754;0.000;0.000;2022-12-07T00:34:51;4.10;99.90
56869;DHT22;42754;0.000;0.000;2022-12-07T00:37:16;4.10;99.90
56869;DHT22;42754;0.000;0.000;2022-12-07T00:39:42;4.10;99.90
56869;DHT22;42754;0.000;0.000;2022-12-07T00:42:08;4.10;99.90
56869;DHT22;42754;0.000;0.000;2022-12-07T00:44:33;4.00;99.90
56869;DHT22;42754;0.000;0.000;2022-12-07T00:46:59;4.00;99.90
56869;DHT22;42754;0.000;0.000;2022-12-07T00:49:24;4.00;99.90
56869;DHT22;42754;0.000;0.000;2022-12-07T00:51:50;4.00;99.90
56869;DHT22;42754;0.000;0.000;2022-12-07T00:54:16;4.00;99.90
56869;DHT22;42754;0.000;0.000;2022-12-07T00:56:41;4.00;99.90
56869;DHT22;42754;0.000;0.000;2022-12-07T00:59:07;4.00;99.90
56869;DHT22;42754;0.000;0.000;2022-12-07T01:01:34;3.90;99.90
56869;DHT22;42754;0.000;0.000;2022-12-07T01:03:59;3.90;99.90
56869;DHT22;42754;0.000;0.000;2022-12-07T01:06:29;3.90;99.90
56869;DHT22;42754;0.000;0.000;2022-12-07T01:08:55;3.80;99.90
56869;DHT22;42754;0.000;0.000;2022-12-07T01:11:22;3.90;99.90
56869;DHT22;42754;0.000;0.000;2022-12-07T01:13:49;3.80;99.90
56869;DHT22;42754;0.000;0.000;2022-12-07T01:16:15;3.80;99.90
56869;DHT22;42754;0.000;0.000;2022-12-07T01:18:41;3.80;99.90
56869;DHT22;42754;0.000;0.000;2022-12-07T01:21:09;3.70;99.90
56869;DHT22;42754;0.000;0.000;2022-12-07T01:23:35;3.70;99.90
56869;DHT22;42754;0.000;0.000;2022-12-07T01:26:02;3.70;99.90
56869;DHT22;42754;0.000;0.000;2022-12-07T01:28:28;3.80;99.90
56869;DHT22;42754;0.000;0.000;2022-12-07T01:30:58;3.80;99.90
56869;DHT22;42754;0.000;0.000;2022-12-07T01:33:25;3.70;99.90
56869;DHT22;42754;0.000;0.000;2022-12-07T01:35:51;3.80;99.90
56869;DHT22;42754;0.000;0.000;2022-12-07T01:38:17;3.70;99.90
56869;DHT22;42754;0.000;0.000;2022-12-07T01:40:42;3.70;99.90
56869;DHT22;42754;0.000;0.000;2022-12-07T01:43:15;3.60;99.90
56869;DHT22;42754;0.000;0.000;2022-12-07T01:45:42;3.60;99.90
56869;DHT22;42754;0.000;0.000;2022-12-07T01:48:08;3.60;99.90
56869;DHT22;42754;0.000;0.000;2022-12-07T01:50:34;3.70;99.90
56869;DHT22;42754;0.000;0.000;2022-12-07T01:53:01;3.70;99.90
56869;DHT22;42754;0.000;0.000;2022-12-07T01:55:27;3.60;99.90
56869;DHT22;42754;0.000;0.000;2022-12-07T01:57:54;3.60;99.90
56869;DHT22;42754;0.000;0.000;2022-12-07T02:00:20;3.60;99.90
56869;DHT22;42754;0.000;0.000;2022-12-07T02:02:48;3.60;99.90
56869;DHT22;42754;0.000;0.000;2022-12-07T02:05:15;3.60;99.90
56869;DHT22;42754;0.000;0.000;2022-12-07T02:07:41;3.60;99.90
56869;DHT22;42754;0.000;0.000;2022-12-07T02:10:18;3.50;99.90
56869;DHT22;42754;0.000;0.000;2022-12-07T02:12:44;3.50;99.90
56869;DHT22;42754;0.000;0.000;2022-12-07T02:15:11;3.50;99.90
56869;DHT22;42754;0.000;0.000;2022-12-07T02:17:52;3.50;99.90
56869;DHT22;42754;0.000;0.000;2022-12-07T02:20:33;3.50;99.90
56869;DHT22;42754;0.000;0.000;2022-12-07T02:23:18;3.50;99.90
56869;DHT22;42754;0.000;0.000;2022-12-07T02:25:58;3.50;99.90
56869;DHT22;42754;0.000;0.000;2022-12-07T02:29:11;3.40;99.90
56869;DHT22;42754;0.000;0.000;2022-12-07T02:31:18;3.40;99.90
56869;DHT22;42754;0.000;0.000;2022-12-07T02:33:54;3.40;99.90
56869;DHT22;42754;0.000;0.000;2022-12-07T02:36:21;3.40;99.90
56869;DHT22;42754;0.000;0.000;2022-12-07T02:38:53;3.40;99.90
56869;DHT22;42754;0.000;0.000;2022-12-07T02:41:33;3.50;99.90
56869;DHT22;42754;0.000;0.000;2022-12-07T02:44:02;3.40;99.90
56869;DHT22;42754;0.000;0.000;2022-12-07T02:46:33;3.50;99.90
56869;DHT22;42754;0.000;0.000;2022-12-07T02:49:01;3.50;99.90
56869;DHT22;42754;0.000;0.000;2022-12-07T02:51:31;3.50;99.90
56869;DHT22;42754;0.000;0.000;2022-12-07T02:53:57;3.50;99.90
56869;DHT22;42754;0.000;0.000;2022-12-07T02:56:36;3.50;99.90
56869;DHT22;42754;0.000;0.000;2022-12-07T03:04:43;3.50;99.90
56869;DHT22;42754;0.000;0.000;2022-12-07T03:07:32;3.50;99.90
56869;DHT22;42754;0.000;0.000;2022-12-07T03:15:43;3.70;99.90
56869;DHT22;42754;0.000;0.000;2022-12-07T03:18:10;3.70;99.90
56869;DHT22;42754;0.000;0.000;2022-12-07T03:20:39;3.70;99.90
56869;DHT22;42754;0.000;0.000;2022-12-07T03:23:06;3.70;99.90
56869;DHT22;42754;0.000;0.000;2022-12-07T03:25:35;3.70;99.90
56869;DHT22;42754;0.000;0.000;2022-12-07T03:28:05;3.80;99.90
56869;DHT22;42754;0.000;0.000;2022-12-07T03:33:03;3.70;99.90
56869;DHT22;42754;0.000;0.000;2022-12-07T03:35:32;3.70;99.90
56869;DHT22;42754;0.000;0.000;2022-12-07T03:42:55;3.70;99.90
56869;DHT22;42754;0.000;0.000;2022-12-07T03:45:22;3.70;99.90
56869;DHT22;42754;0.000;0.000;2022-12-07T03:48:05;3.70;99.90
56869;DHT22;42754;0.000;0.000;2022-12-07T03:53:29;3.70;99.90
56869;DHT22;42754;0.000;0.000;2022-12-07T03:55:57;3.70;99.90
56869;DHT22;42754;0.000;0.000;2022-12-07T03:58:23;3.80;99.90
56869;DHT22;42754;0.000;0.000;2022-12-07T04:00:49;3.70;99.90
56869;DHT22;42754;0.000;0.000;2022-12-07T04:03:15;3.80;99.90
56869;DHT22;42754;0.000;0.000;2022-12-07T04:05:41;3.70;99.90
56869;DHT22;42754;0.000;0.000;2022-12-07T04:08:07;3.70;99.90
56869;DHT22;42754;0.000;0.000;2022-12-07T04:10:33;3.70;99.90
56869;DHT22;42754;0.000;0.000;2022-12-07T04:12:58;3.70;99.90
56869;DHT22;42754;0.000;0.000;2022-12-07T04:15:24;3.60;99.90
56869;DHT22;42754;0.000;0.000;2022-12-07T04:17:50;3.50;99.90
56869;DHT22;42754;0.000;0.000;2022-12-07T04:20:16;3.50;99.90
56869;DHT22;42754;0.000;0.000;2022-12-07T04:22:41;3.40;99.90
56869;DHT22;42754;0.000;0.000;2022-12-07T04:25:07;3.40;99.90
56869;DHT22;42754;0.000;0.000;2022-12-07T04:27:32;3.40;99.90
56869;DHT22;42754;0.000;0.000;2022-12-07T04:29:58;3.40;99.90
56869;DHT22;42754;0.000;0.000;2022-12-07T04:32:23;3.30;99.90
56869;DHT22;42754;0.000;0.000;2022-12-07T04:34:49;3.30;99.90
56869;DHT22;42754;0.000;0.000;2022-12-07T04:37:15;3.30;99.90
56869;DHT22;42754;0.000;0.000;2022-12-07T04:39:40;3.40;99.90
56869;DHT22;42754;0.000;0.000;2022-12-07T04:42:06;3.40;99.90
56869;DHT22;42754;0.000;0.000;2022-12-07T04:44:31;3.40;99.90
56869;DHT22;42754;0.000;0.000;2022-12-07T04:46:57;3.50;99.90
56869;DHT22;42754;0.000;0.000;2022-12-07T04:49:23;3.50;99.90
56869;DHT22;42754;0.000;0.000;2022-12-07T04:51:49;3.50;99.90
56869;DHT22;42754;0.000;0.000;2022-12-07T04:54:15;3.50;99.90
56869;DHT22;42754;0.000;0.000;2022-12-07T04:56:40;3.50;99.90
56869;DHT22;42754;0.000;0.000;2022-12-07T04:59:06;3.50;99.90
56869;DHT22;42754;0.000;0.000;2022-12-07T05:01:32;3.50;99.90
56869;DHT22;42754;0.000;0.000;2022-12-07T05:03:58;3.50;99.90
56869;DHT22;42754;0.000;0.000;2022-12-07T05:06:24;3.40;99.90
56869;DHT22;42754;0.000;0.000;2022-12-07T05:08:50;3.40;99.90
56869;DHT22;42754;0.000;0.000;2022-12-07T05:11:16;3.40;99.90
56869;DHT22;42754;0.000;0.000;2022-12-07T05:14:01;3.40;99.90
56869;DHT22;42754;0.000;0.000;2022-12-07T05:16:27;3.30;99.90
56869;DHT22;42754;0.000;0.000;2022-12-07T05:18:52;3.30;99.90
56869;DHT22;42754;0.000;0.000;2022-12-07T05:21:18;3.30;99.90
56869;DHT22;42754;0.000;0.000;2022-12-07T05:23:44;3.30;99.90
56869;DHT22;42754;0.000;0.000;2022-12-07T05:26:09;3.30;99.90
56869;DHT22;42754;0.000;0.000;2022-12-07T05:28:35;3.30;99.90
56869;DHT22;42754;0.000;0.000;2022-12-07T05:31:00;3.20;99.90
56869;DHT22;42754;0.000;0.000;2022-12-07T05:33:26;3.20;99.90
56869;DHT22;42754;0.000;0.000;2022-12-07T05:35:52;3.10;99.90
56869;DHT22;42754;0.000;0.000;2022-12-07T05:38:17;3.10;99.90
56869;DHT22;42754;0.000;0.000;2022-12-07T05:40:43;3.10;99.90
56869;DHT22;42754;0.000;0.000;2022-12-07T05:43:08;3.10;99.90
56869;DHT22;42754;0.000;0.000;2022-12-07T05:45:34;3.10;99.90
56869;DHT22;42754;0.000;0.000;2022-12-07T05:47:59;3.10;99.90
56869;DHT22;42754;0.000;0.000;2022-12-07T05:50:25;3.10;99.90
56869;DHT22;42754;0.000;0.000;2022-12-07T05:52:50;3.20;99.90
56869;DHT22;42754;0.000;0.000;2022-12-07T05:55:16;3.20;99.90
56869;DHT22;42754;0.000;0.000;2022-12-07T05:57:42;3.20;99.90
56869;DHT22;42754;0.000;0.000;2022-12-07T06:00:27;3.30;99.90
56869;DHT22;42754;0.000;0.000;2022-12-07T06:02:52;3.30;99.90
56869;DHT22;42754;0.000;0.000;2022-12-07T06:05:18;3.30;99.90
56869;DHT22;42754;0.000;0.000;2022-12-07T06:07:44;3.30;99.90
56869;DHT22;42754;0.000;0.000;2022-12-07T06:10:10;3.20;99.90
56869;DHT22;42754;0.000;0.000;2022-12-07T06:12:35;3.20;99.90
56869;DHT22;42754;0.000;0.000;2022-12-07T06:15:03;3.20;99.90
56869;DHT22;42754;0.000;0.000;2022-12-07T06:17:29;3.20;99.90
56869;DHT22;42754;0.000;0.000;2022-12-07T06:19:54;3.20;99.90
56869;DHT22;42754;0.000;0.000;2022-12-07T06:22:20;3.20;99.90
56869;DHT22;42754;0.000;0.000;2022-12-07T06:24:45;3.20;99.90
56869;DHT22;42754;0.000;0.000;2022-12-07T06:27:11;3.20;99.90
56869;DHT22;42754;0.000;0.000;2022-12-07T06:29:37;3.20;99.90
56869;DHT22;42754;0.000;0.000;2022-12-07T06:32:02;3.20;99.90
56869;DHT22;42754;0.000;0.000;2022-12-07T06:34:28;3.10;99.90
56869;DHT22;42754;0.000;0.000;2022-12-07T06:36:54;3.10;99.90
56869;DHT22;42754;0.000;0.000;2022-12-07T06:39:24;3.10;99.90
56869;DHT22;42754;0.000;0.000;2022-12-07T06:41:50;3.10;99.90
56869;DHT22;42754;0.000;0.000;2022-12-07T06:44:17;3.00;99.90
56869;DHT22;42754;0.000;0.000;2022-12-07T06:46:43;3.00;99.90
56869;DHT22;42754;0.000;0.000;2022-12-07T06:49:10;3.00;99.90
56869;DHT22;42754;0.000;0.000;2022-12-07T06:51:35;3.00;99.90
56869;DHT22;42754;0.000;0.000;2022-12-07T06:54:02;2.90;99.90
56869;DHT22;42754;0.000;0.000;2022-12-07T06:56:28;2.90;99.90
56869;DHT22;42754;0.000;0.000;2022-12-07T06:58:54;3.00;99.90
56869;DHT22;42754;0.000;0.000;2022-12-07T07:01:19;3.00;99.90
56869;DHT22;42754;0.000;0.000;2022-12-07T07:03:45;3.00;99.90
56869;DHT22;42754;0.000;0.000;2022-12-07T07:06:11;3.00;99.90
56869;DHT22;42754;0.000;0.000;2022-12-07T07:08:37;3.00;99.90
56869;DHT22;42754;0.000;0.000;2022-12-07T07:11:03;3.00;99.90
56869;DHT22;42754;0.000;0.000;2022-12-07T07:13:28;3.00;99.90
56869;DHT22;42754;0.000;0.000;2022-12-07T07:15:54;3.00;99.90
56869;DHT22;42754;0.000;0.000;2022-12-07T07:18:20;3.00;99.90
56869;DHT22;42754;0.000;0.000;2022-12-07T07:20:46;3.00;99.90
56869;DHT22;42754;0.000;0.000;2022-12-07T07:23:11;2.90;99.90
56869;DHT22;42754;0.000;0.000;2022-12-07T07:25:37;2.90;99.90
56869;DHT22;42754;0.000;0.000;2022-12-07T07:28:02;2.90;99.90
56869;DHT22;42754;0.000;0.000;2022-12-07T07:30:28;2.90;99.90
56869;DHT22;42754;0.000;0.000;2022-12-07T07:32:57;2.90;99.90
56869;DHT22;42754;0.000;0.000;2022-12-07T07:35:24;2.90;99.90
56869;DHT22;42754;0.000;0.000;2022-12-07T07:37:49;2.90;99.90
56869;DHT22;42754;0.000;0.000;2022-12-07T07:40:15;2.90;99.90
56869;DHT22;42754;0.000;0.000;2022-12-07T07:42:40;2.90;99.90
56869;DHT22;42754;0.000;0.000;2022-12-07T07:45:06;2.90;99.90
56869;DHT22;42754;0.000;0.000;2022-12-07T07:47:32;2.90;99.90
56869;DHT22;42754;0.000;0.000;2022-12-07T07:49:58;2.90;99.90
56869;DHT22;42754;0.000;0.000;2022-12-07T07:52:23;2.90;99.90
56869;DHT22;42754;0.000;0.000;2022-12-07T07:54:49;2.90;99.90
56869;DHT22;42754;0.000;0.000;2022-12-07T07:57:15;3.00;99.90
56869;DHT22;42754;0.000;0.000;2022-12-07T07:59:41;3.00;99.90
56869;DHT22;42754;0.000;0.000;2022-12-07T08:02:08;3.00;99.90
56869;DHT22;42754;0.000;0.000;2022-12-07T08:04:35;3.10;99.90
56869;DHT22;42754;0.000;0.000;2022-12-07T08:07:01;3.10;99.90
56869;DHT22;42754;0.000;0.000;2022-12-07T08:09:26;3.30;99.90
56869;DHT22;42754;0.000;0.000;2022-12-07T08:11:52;3.30;99.90
56869;DHT22;42754;0.000;0.000;2022-12-07T08:14:17;3.30;99.90
56869;DHT22;42754;0.000;0.000;2022-12-07T08:16:43;3.60;99.90
56869;DHT22;42754;0.000;0.000;2022-12-07T08:19:08;3.90;99.90
56869;DHT22;42754;0.000;0.000;2022-12-07T08:21:34;3.80;99.90
56869;DHT22;42754;0.000;0.000;2022-12-07T08:23:59;3.80;99.90
56869;DHT22;42754;0.000;0.000;2022-12-07T08:26:25;3.80;99.90
56869;DHT22;42754;0.000;0.000;2022-12-07T08:28:52;3.70;99.90
56869;DHT22;42754;0.000;0.000;2022-12-07T08:31:18;3.70;99.90
56869;DHT22;42754;0.000;0.000;2022-12-07T08:33:47;3.70;99.90
56869;DHT22;42754;0.000;0.000;2022-12-07T08:36:13;3.70;99.90
56869;DHT22;42754;0.000;0.000;2022-12-07T08:38:39;3.70;99.90
56869;DHT22;42754;0.000;0.000;2022-12-07T08:41:05;3.70;99.90
56869;DHT22;42754;0.000;0.000;2022-12-07T08:43:31;3.60;99.90
56869;DHT22;42754;0.000;0.000;2022-12-07T08:46:03;3.60;99.90
56869;DHT22;42754;0.000;0.000;2022-12-07T08:48:30;3.60;99.90
56869;DHT22;42754;0.000;0.000;2022-12-07T08:50:57;3.60;99.90
56869;DHT22;42754;0.000;0.000;2022-12-07T08:53:23;3.50;99.90
56869;DHT22;42754;0.000;0.000;2022-12-07T08:55:48;3.60;99.90
56869;DHT22;42754;0.000;0.000;2022-12-07T08:58:14;3.60;99.90
56869;DHT22;42754;0.000;0.000;2022-12-07T09:00:40;3.60;99.90
56869;DHT22;42754;0.000;0.000;2022-12-07T09:03:05;3.60;99.90
56869;DHT22;42754;0.000;0.000;2022-12-07T09:05:32;5.10;99.90
56869;DHT22;42754;0.000;0.000;2022-12-07T09:07:59;7.70;99.90
56869;DHT22;42754;0.000;0.000;2022-12-07T09:10:25;9.90;99.90
56869;DHT22;42754;0.000;0.000;2022-12-07T09:12:52;8.50;99.90
56869;DHT22;42754;0.000;0.000;2022-12-07T09:15:18;8.90;99.90
56869;DHT22;42754;0.000;0.000;2022-12-07T09:17:43;9.20;99.90
56869;DHT22;42754;0.000;0.000;2022-12-07T09:20:09;7.20;99.90
56869;DHT22;42754;0.000;0.000;2022-12-07T09:22:35;6.30;99.90
56869;DHT22;42754;0.000;0.000;2022-12-07T09:25:00;5.70;99.90
56869;DHT22;42754;0.000;0.000;2022-12-07T09:27:26;5.60;99.90
56869;DHT22;42754;0.000;0.000;2022-12-07T09:29:52;6.20;99.90
56869;DHT22;42754;0.000;0.000;2022-12-07T09:32:18;6.70;99.90
56869;DHT22;42754;0.000;0.000;2022-12-07T09:34:43;6.70;99.90
56869;DHT22;42754;0.000;0.000;2022-12-07T09:37:09;6.50;99.90
56869;DHT22;42754;0.000;0.000;2022-12-07T09:39:37;6.60;99.90
56869;DHT22;42754;0.000;0.000;2022-12-07T09:42:03;6.60;99.90
56869;DHT22;42754;0.000;0.000;2022-12-07T09:44:29;6.20;99.90
56869;DHT22;42754;0.000;0.000;2022-12-07T09:46:55;6.10;99.90
56869;DHT22;42754;0.000;0.000;2022-12-07T09:49:22;5.90;99.90
56869;DHT22;42754;0.000;0.000;2022-12-07T09:51:59;5.90;99.90
56869;DHT22;42754;0.000;0.000;2022-12-07T09:54:25;5.80;99.90
56869;DHT22;42754;0.000;0.000;2022-12-07T09:56:51;5.70;99.90
56869;DHT22;42754;0.000;0.000;2022-12-07T09:59:17;5.90;99.90
56869;DHT22;42754;0.000;0.000;2022-12-07T10:01:44;6.20;99.90
56869;DHT22;42754;0.000;0.000;2022-12-07T10:04:14;6.30;99.90
56869;DHT22;42754;0.000;0.000;2022-12-07T10:06:41;6.60;99.90
56869;DHT22;42754;0.000;0.000;2022-12-07T10:09:16;6.70;99.90
56869;DHT22;42754;0.000;0.000;2022-12-07T10:14:28;7.30;99.90
56869;DHT22;42754;0.000;0.000;2022-12-07T10:16:54;7.40;99.90
56869;DHT22;42754;0.000;0.000;2022-12-07T10:24:30;7.50;99.90
56869;DHT22;42754;0.000;0.000;2022-12-07T10:26:55;7.50;99.90
56869;DHT22;42754;0.000;0.000;2022-12-07T10:34:51;7.60;99.90
56869;DHT22;42754;0.000;0.000;2022-12-07T10:37:18;7.50;99.90
56869;DHT22;42754;0.000;0.000;2022-12-07T10:39:47;7.50;99.90
56869;DHT22;42754;0.000;0.000;2022-12-07T10:42:17;7.80;99.90
56869;DHT22;42754;0.000;0.000;2022-12-07T10:44:43;7.80;99.90
56869;DHT22;42754;0.000;0.000;2022-12-07T10:47:12;8.10;99.90
56869;DHT22;42754;0.000;0.000;2022-12-07T10:55:08;7.60;99.90
56869;DHT22;42754;0.000;0.000;2022-12-07T10:57:47;7.60;99.90
56869;DHT22;42754;0.000;0.000;2022-12-07T11:00:22;7.40;99.90
56869;DHT22;42754;0.000;0.000;2022-12-07T11:08:09;7.00;99.90
56869;DHT22;42754;0.000;0.000;2022-12-07T11:10:41;6.90;99.90
56869;DHT22;42754;0.000;0.000;2022-12-07T11:18:30;6.60;99.90
56869;DHT22;42754;0.000;0.000;2022-12-07T11:34:08;6.90;99.90
56869;DHT22;42754;0.000;0.000;2022-12-07T11:39:00;7.10;99.90
56869;DHT22;42754;0.000;0.000;2022-12-07T11:41:28;6.90;99.90
56869;DHT22;42754;0.000;0.000;2022-12-07T11:43:57;6.90;99.90
56869;DHT22;42754;0.000;0.000;2022-12-07T11:46:25;7.00;99.90
56869;DHT22;42754;0.000;0.000;2022-12-07T11:49:01;7.30;99.90
56869;DHT22;42754;0.000;0.000;2022-12-07T11:51:28;7.40;99.90
56869;DHT22;42754;0.000;0.000;2022-12-07T11:53:58;7.60;99.90
56869;DHT22;42754;0.000;0.000;2022-12-07T11:56:25;7.90;99.90
56869;DHT22;42754;0.000;0.000;2022-12-07T12:03:59;7.90;99.90
56869;DHT22;42754;0.000;0.000;2022-12-07T12:06:26;7.90;99.90
56869;DHT22;42754;0.000;0.000;2022-12-07T12:09:36;7.80;99.90
56869;DHT22;42754;0.000;0.000;2022-12-07T12:19:59;7.70;99.90
56869;DHT22;42754;0.000;0.000;2022-12-07T12:22:32;7.70;99.90
56869;DHT22;42754;0.000;0.000;2022-12-07T12:25:00;7.60;99.90
56869;DHT22;42754;0.000;0.000;2022-12-07T12:27:30;7.70;99.90
56869;DHT22;42754;0.000;0.000;2022-12-07T12:29:58;7.70;99.90
56869;DHT22;42754;0.000;0.000;2022-12-07T12:32:31;7.80;99.90
56869;DHT22;42754;0.000;0.000;2022-12-07T12:42:49;7.60;99.90
56869;DHT22;42754;0.000;0.000;2022-12-07T12:45:22;7.60;99.90
56869;DHT22;42754;0.000;0.000;2022-12-07T12:47:56;7.60;99.90
56869;DHT22;42754;0.000;0.000;2022-12-07T12:50:24;7.60;99.90
56869;DHT22;42754;0.000;0.000;2022-12-07T12:55:18;7.60;99.90
56869;DHT22;42754;0.000;0.000;2022-12-07T12:57:47;7.60;99.90
56869;DHT22;42754;0.000;0.000;2022-12-07T13:00:23;7.50;99.90
56869;DHT22;42754;0.000;0.000;2022-12-07T13:02:51;7.40;99.90
56869;DHT22;42754;0.000;0.000;2022-12-07T13:05:28;7.30;99.90
56869;DHT22;42754;0.000;0.000;2022-12-07T13:18:01;7.00;99.90
56869;DHT22;42754;0.000;0.000;2022-12-07T13:20:44;7.10;99.90
56869;DHT22;42754;0.000;0.000;2022-12-07T13:23:09;7.00;99.90
56869;DHT22;42754;0.000;0.000;2022-12-07T13:25:45;7.10;99.90
56869;DHT22;42754;0.000;0.000;2022-12-07T13:28:14;7.10;99.90
56869;DHT22;42754;0.000;0.000;2022-12-07T13:30:58;7.00;99.90
56869;DHT22;42754;0.000;0.000;2022-12-07T13:33:25;7.00;99.90
56869;DHT22;42754;0.000;0.000;2022-12-07T13:35:56;7.10;99.90
56869;DHT22;42754;0.000;0.000;2022-12-07T13:41:04;7.20;99.90
56869;DHT22;42754;0.000;0.000;2022-12-07T13:43:30;7.20;99.90
56869;DHT22;42754;0.000;0.000;2022-12-07T13:45:57;7.20;99.90
56869;DHT22;42754;0.000;0.000;2022-12-07T13:50:52;7.20;99.90
56869;DHT22;42754;0.000;0.000;2022-12-07T13:53:18;7.20;99.90
56869;DHT22;42754;0.000;0.000;2022-12-07T13:55:46;7.20;99.90
56869;DHT22;42754;0.000;0.000;2022-12-07T13:58:11;7.20;99.90
56869;DHT22;42754;0.000;0.000;2022-12-07T14:00:37;7.20;99.90
56869;DHT22;42754;0.000;0.000;2022-12-07T14:05:32;7.10;99.90
56869;DHT22;42754;0.000;0.000;2022-12-07T14:10:32;7.10;99.90
56869;DHT22;42754;0.000;0.000;2022-12-07T14:12:59;7.10;99.90
56869;DHT22;42754;0.000;0.000;2022-12-07T14:15:30;7.00;99.90
56869;DHT22;42754;0.000;0.000;2022-12-07T14:17:56;6.90;99.90
56869;DHT22;42754;0.000;0.000;2022-12-07T14:20:38;6.80;99.90
56869;DHT22;42754;0.000;0.000;2022-12-07T14:23:04;6.80;99.90
56869;DHT22;42754;0.000;0.000;2022-12-07T14:25:46;6.50;99.90
56869;DHT22;42754;0.000;0.000;2022-12-07T14:28:28;6.50;99.90
56869;DHT22;42754;0.000;0.000;2022-12-07T14:30:54;6.50;99.90
56869;DHT22;42754;0.000;0.000;2022-12-07T14:33:19;6.30;99.90
56869;DHT22;42754;0.000;0.000;2022-12-07T14:35:46;6.20;99.90
56869;DHT22;42754;0.000;0.000;2022-12-07T14:38:11;6.20;99.90
56869;DHT22;42754;0.000;0.000;2022-12-07T14:40:37;6.20;99.90
56869;DHT22;42754;0.000;0.000;2022-12-07T14:43:04;6.20;99.90
56869;DHT22;42754;0.000;0.000;2022-12-07T14:45:32;6.10;99.90
56869;DHT22;42754;0.000;0.000;2022-12-07T14:47:57;6.10;99.90
56869;DHT22;42754;0.000;0.000;2022-12-07T14:50:23;6.20;99.90
56869;DHT22;42754;0.000;0.000;2022-12-07T14:52:52;6.10;99.90
56869;DHT22;42754;0.000;0.000;2022-12-07T14:55:26;6.10;99.90
56869;DHT22;42754;0.000;0.000;2022-12-07T14:57:53;6.10;99.90
56869;DHT22;42754;0.000;0.000;2022-12-07T15:00:18;6.10;99.90
56869;DHT22;42754;0.000;0.000;2022-12-07T15:02:45;6.10;99.90
56869;DHT22;42754;0.000;0.000;2022-12-07T15:05:11;6.00;99.90
56869;DHT22;42754;0.000;0.000;2022-12-07T15:07:37;5.90;99.90
56869;DHT22;42754;0.000;0.000;2022-12-07T15:10:03;5.90;99.90
56869;DHT22;42754;0.000;0.000;2022-12-07T15:12:29;5.90;99.90
56869;DHT22;42754;0.000;0.000;2022-12-07T15:14:54;5.80;99.90
56869;DHT22;42754;0.000;0.000;2022-12-07T15:17:20;5.70;99.90
56869;DHT22;42754;0.000;0.000;2022-12-07T15:19:45;5.80;99.90
56869;DHT22;42754;0.000;0.000;2022-12-07T15:22:11;5.70;99.90
56869;DHT22;42754;0.000;0.000;2022-12-07T15:24:37;5.70;99.90
56869;DHT22;42754;0.000;0.000;2022-12-07T15:27:02;5.70;99.90
56869;DHT22;42754;0.000;0.000;2022-12-07T15:29:28;5.70;99.90
56869;DHT22;42754;0.000;0.000;2022-12-07T15:31:54;5.70;99.90
56869;DHT22;42754;0.000;0.000;2022-12-07T15:34:20;5.70;99.90
56869;DHT22;42754;0.000;0.000;2022-12-07T15:36:45;5.50;99.90
56869;DHT22;42754;0.000;0.000;2022-12-07T15:39:11;5.60;99.90
56869;DHT22;42754;0.000;0.000;2022-12-07T15:41:37;5.50;99.90
56869;DHT22;42754;0.000;0.000;2022-12-07T15:44:02;5.50;99.90
56869;DHT22;42754;0.000;0.000;2022-12-07T15:46:47;5.40;99.90
56869;DHT22;42754;0.000;0.000;2022-12-07T15:49:14;5.40;99.90
56869;DHT22;42754;0.000;0.000;2022-12-07T15:51:40;5.30;99.90
56869;DHT22;42754;0.000;0.000;2022-12-07T15:54:06;5.40;99.90
56869;DHT22;42754;0.000;0.000;2022-12-07T15:56:31;5.40;99.90
56869;DHT22;42754;0.000;0.000;2022-12-07T15:58:57;5.40;99.90
56869;DHT22;42754;0.000;0.000;2022-12-07T16:01:22;5.40;99.90
56869;DHT22;42754;0.000;0.000;2022-12-07T16:03:48;5.30;99.90
56869;DHT22;42754;0.000;0.000;2022-12-07T16:06:17;5.30;99.90
56869;DHT22;42754;0.000;0.000;2022-12-07T16:08:44;5.30;99.90
56869;DHT22;42754;0.000;0.000;2022-12-07T16:11:10;5.30;99.90
56869;DHT22;42754;0.000;0.000;2022-12-07T16:13:36;5.30;99.90
56869;DHT22;42754;0.000;0.000;2022-12-07T16:16:03;5.30;99.90
56869;DHT22;42754;0.000;0.000;2022-12-07T16:18:28;5.30;99.90
56869;DHT22;42754;0.000;0.000;2022-12-07T16:20:54;5.30;99.90
56869;DHT22;42754;0.000;0.000;2022-12-07T16:23:20;5.30;99.90
56869;DHT22;42754;0.000;0.000;2022-12-07T16:25:46;5.30;99.90
56869;DHT22;42754;0.000;0.000;2022-12-07T16:28:11;5.30;99.90
56869;DHT22;42754;0.000;0.000;2022-12-07T16:30:37;5.30;99.90
56869;DHT22;42754;0.000;0.000;2022-12-07T16:33:02;5.20;99.90
56869;DHT22;42754;0.000;0.000;2022-12-07T16:35:28;5.10;99.90
56869;DHT22;42754;0.000;0.000;2022-12-07T16:37:54;4.90;99.90
56869;DHT22;42754;0.000;0.000;2022-12-07T16:40:20;4.90;99.90
56869;DHT22;42754;0.000;0.000;2022-12-07T16:42:46;4.90;99.90
56869;DHT22;42754;0.000;0.000;2022-12-07T16:45:13;4.90;99.90
56869;DHT22;42754;0.000;0.000;2022-12-07T16:47:39;4.90;99.90
56869;DHT22;42754;0.000;0.000;2022-12-07T16:50:05;4.90;99.90
56869;DHT22;42754;0.000;0.000;2022-12-07T16:52:32;5.00;99.90
56869;DHT22;42754;0.000;0.000;2022-12-07T16:54:58;5.00;99.90
56869;DHT22;42754;0.000;0.000;2022-12-07T16:57:24;4.90;99.90
56869;DHT22;42754;0.000;0.000;2022-12-07T16:59:51;5.00;99.90
56869;DHT22;42754;0.000;0.000;2022-12-07T17:02:17;5.00;99.90
56869;DHT22;42754;0.000;0.000;2022-12-07T17:04:43;5.00;99.90
56869;DHT22;42754;0.000;0.000;2022-12-07T17:07:08;4.90;99.90
56869;DHT22;42754;0.000;0.000;2022-12-07T17:09:35;4.90;99.90
56869;DHT22;42754;0.000;0.000;2022-12-07T17:12:01;5.00;99.90
56869;DHT22;42754;0.000;0.000;2022-12-07T17:14:27;4.90;99.90
56869;DHT22;42754;0.000;0.000;2022-12-07T17:17:13;4.90;99.90
56869;DHT22;42754;0.000;0.000;2022-12-07T17:19:38;4.80;99.90
56869;DHT22;42754;0.000;0.000;2022-12-07T17:22:04;4.90;99.90
56869;DHT22;42754;0.000;0.000;2022-12-07T17:24:30;4.90;99.90
56869;DHT22;42754;0.000;0.000;2022-12-07T17:26:56;4.80;99.90
56869;DHT22;42754;0.000;0.000;2022-12-07T17:29:21;4.80;99.90
56869;DHT22;42754;0.000;0.000;2022-12-07T17:31:47;4.80;99.90
56869;DHT22;42754;0.000;0.000;2022-12-07T17:34:13;4.80;99.90
56869;DHT22;42754;0.000;0.000;2022-12-07T17:36:40;4.70;99.90
56869;DHT22;42754;0.000;0.000;2022-12-07T17:39:09;4.70;99.90
56869;DHT22;42754;0.000;0.000;2022-12-07T17:41:36;4.70;99.90
56869;DHT22;42754;0.000;0.000;2022-12-07T17:44:20;4.70;99.90
56869;DHT22;42754;0.000;0.000;2022-12-07T17:46:47;4.70;99.90
56869;DHT22;42754;0.000;0.000;2022-12-07T17:49:13;4.70;99.90
56869;DHT22;42754;0.000;0.000;2022-12-07T17:51:39;4.70;99.90
56869;DHT22;42754;0.000;0.000;2022-12-07T17:54:23;4.70;99.90